Time;durP1;ratioP1;P1;durP2;ratioP2;P2;SDS_P1;SDS_P2;PMS_P1;PMS_P2;Temp;Humidity;BMP_temperature;BMP_pressure;BME280_temperature;BME280_humidity;BME280_pressure;Samples;Min_cycle;Max_cycle;Signal;HPM_P1;HPM_P2
2023/09/29 00:01:19;;;;;;;1.27;0.93;;;18.20;99.90;;;;;;5035020;28;20025;-83
2023/09/29 00:03:46;;;;;;;0.03;0.03;;;18.20;99.90;;;;;;5035301;28;20388;-84
2023/09/29 00:06:12;;;;;;;0.10;0.10;;;18.30;99.90;;;;;;5036095;28;20021;-84
2023/09/29 00:08:38;;;;;;;0.20;0.20;;;18.30;99.90;;;;;;5035211;28;20037;-83
2023/09/29 00:11:04;;;;;;;0.32;0.32;;;18.30;99.90;;;;;;5035148;28;20021;-82
2023/09/29 00:13:30;;;;;;;0.15;0.15;;;18.40;99.90;;;;;;5035227;28;20412;-83
2023/09/29 00:15:56;;;;;;;0.43;0.10;;;18.20;99.90;;;;;;5034588;28;20037;-79
2023/09/29 00:18:23;;;;;;;0.80;0.30;;;18.30;99.90;;;;;;5035090;28;20036;-83
2023/09/29 00:20:48;;;;;;;6.55;0.82;;;18.30;99.90;;;;;;5034837;28;20041;-83
2023/09/29 00:23:15;;;;;;;2.95;0.90;;;18.30;99.90;;;;;;5034878;28;20029;-83
2023/09/29 00:25:41;;;;;;;2.17;1.35;;;18.20;99.90;;;;;;5034803;28;20481;-83
2023/09/29 00:28:06;;;;;;;0.10;0.10;;;18.30;99.90;;;;;;5034480;28;20029;-82
2023/09/29 00:30:33;;;;;;;1.15;0.55;;;18.50;99.90;;;;;;5034432;28;20025;-83
2023/09/29 00:32:58;;;;;;;2.42;0.57;;;18.40;99.90;;;;;;5021693;28;20347;-83
2023/09/29 00:35:24;;;;;;;0.52;0.38;;;18.30;99.90;;;;;;5034597;28;20390;-83
2023/09/29 00:38:00;;;;;;;7.07;1.55;;;18.40;99.90;;;;;;5033289;28;20037;-82
2023/09/29 00:40:27;;;;;;;0.00;0.00;;;18.40;99.90;;;;;;5033148;28;20083;-81
2023/09/29 00:42:54;;;;;;;0.22;0.22;;;18.50;99.90;;;;;;5034541;28;20440;-83
2023/09/29 00:45:23;;;;;;;0.52;0.52;;;18.40;99.90;;;;;;5034124;28;20025;-82
2023/09/29 00:47:52;;;;;;;3.10;0.73;;;18.50;99.90;;;;;;5034252;28;20075;-82
2023/09/29 00:50:21;;;;;;;2.65;0.10;;;18.40;99.90;;;;;;5033927;28;20048;-82
2023/09/29 00:52:50;;;;;;;0.38;0.28;;;18.40;99.90;;;;;;5032984;28;20075;-82
2023/09/29 00:55:17;;;;;;;18.23;0.75;;;18.40;99.90;;;;;;5032998;28;20030;-82
2023/09/29 00:57:48;;;;;;;0.32;0.32;;;18.40;99.90;;;;;;5033931;28;20022;-82
2023/09/29 01:02:58;;;;;;;0.70;0.70;;;18.40;99.90;;;;;;5034060;28;20063;-82
2023/09/29 01:05:25;;;;;;;0.20;0.20;;;18.40;99.90;;;;;;5032882;28;20040;-82
2023/09/29 01:07:51;;;;;;;0.25;0.25;;;18.40;99.90;;;;;;5032799;28;20048;-82
2023/09/29 01:10:20;;;;;;;0.00;0.00;;;18.50;99.90;;;;;;5028510;28;20058;-82
2023/09/29 01:12:46;;;;;;;0.30;0.30;;;18.50;99.90;;;;;;5012615;28;20030;-82
2023/09/29 01:15:14;;;;;;;0.00;0.00;;;18.60;99.90;;;;;;5014096;28;20536;-82
2023/09/29 01:17:43;;;;;;;0.03;0.03;;;18.70;99.90;;;;;;5013994;28;20034;-83
2023/09/29 01:20:16;;;;;;;0.10;0.10;;;18.50;99.90;;;;;;4996474;28;20022;-82
2023/09/29 01:22:48;;;;;;;0.32;0.32;;;18.50;99.90;;;;;;5013808;28;20394;-82
2023/09/29 01:25:17;;;;;;;0.00;0.00;;;18.50;99.90;;;;;;5012808;28;20033;-82
2023/09/29 01:27:44;;;;;;;0.30;0.30;;;18.60;99.90;;;;;;5011987;28;20104;-82
2023/09/29 01:30:13;;;;;;;0.13;0.10;;;18.40;99.90;;;;;;5013775;28;20064;-83
2023/09/29 01:32:41;;;;;;;0.00;0.00;;;18.40;99.90;;;;;;5012421;28;20018;-82
2023/09/29 01:35:11;;;;;;;0.20;0.20;;;18.40;99.90;;;;;;5012703;28;20038;-82
2023/09/29 01:37:42;;;;;;;3.30;1.15;;;18.50;99.90;;;;;;5017181;28;20029;-84
2023/09/29 01:40:09;;;;;;;0.27;0.27;;;18.50;99.90;;;;;;5016504;28;20371;-83
2023/09/29 01:42:36;;;;;;;0.47;0.45;;;18.40;99.90;;;;;;5014740;28;20022;-82
2023/09/29 01:45:04;;;;;;;0.20;0.20;;;18.40;99.90;;;;;;5014486;28;20046;-83
2023/09/29 01:47:30;;;;;;;0.32;0.32;;;18.40;99.90;;;;;;5016753;28;20026;-83
2023/09/29 01:49:56;;;;;;;0.00;0.00;;;18.60;99.90;;;;;;5015169;28;20028;-83
2023/09/29 01:52:22;;;;;;;0.10;0.10;;;18.70;99.90;;;;;;5028740;28;20356;-83
2023/09/29 01:54:49;;;;;;;3.13;0.85;;;18.70;99.90;;;;;;5013184;28;20474;-82
2023/09/29 01:57:15;;;;;;;0.00;0.00;;;18.70;99.90;;;;;;5013212;28;20037;-82
2023/09/29 01:59:41;;;;;;;0.22;0.22;;;18.60;99.90;;;;;;5012103;28;20092;-83
2023/09/29 02:02:07;;;;;;;1.30;0.70;;;18.70;99.90;;;;;;5027677;28;20029;-83
2023/09/29 02:04:34;;;;;;;2.85;0.93;;;18.70;99.90;;;;;;5013130;28;20457;-81
2023/09/29 02:07:01;;;;;;;0.60;0.60;;;18.60;99.90;;;;;;5013192;28;20166;-83
2023/09/29 02:09:27;;;;;;;0.00;0.00;;;18.60;99.90;;;;;;5028473;28;20029;-82
2023/09/29 02:11:54;;;;;;;1.00;0.73;;;18.80;99.90;;;;;;5011646;28;20038;-83
2023/09/29 02:14:21;;;;;;;0.08;0.08;;;18.80;99.90;;;;;;5028357;28;20032;-82
2023/09/29 02:16:48;;;;;;;0.90;0.90;;;18.90;99.90;;;;;;5011755;28;20021;-83
2023/09/29 02:19:15;;;;;;;0.40;0.40;;;18.90;99.90;;;;;;4999176;28;20022;-83
2023/09/29 02:21:43;;;;;;;0.10;0.10;;;18.70;99.90;;;;;;4992871;28;20030;-84
2023/09/29 02:24:10;;;;;;;0.55;0.32;;;18.80;99.90;;;;;;5008601;28;20060;-81
2023/09/29 02:26:35;;;;;;;4.10;0.40;;;18.90;99.90;;;;;;5011481;28;20025;-81
2023/09/29 02:29:02;;;;;;;0.10;0.10;;;18.90;99.90;;;;;;5011342;28;20041;-82
2023/09/29 02:31:28;;;;;;;0.10;0.10;;;19.00;99.90;;;;;;4993826;28;20038;-82
2023/09/29 02:33:53;;;;;;;0.13;0.13;;;18.90;99.90;;;;;;5006235;28;20030;-82
2023/09/29 02:36:19;;;;;;;0.00;0.00;;;18.90;99.90;;;;;;5011829;28;20041;-80
2023/09/29 02:38:46;;;;;;;0.00;0.00;;;18.90;99.90;;;;;;5012787;28;20068;-83
2023/09/29 02:41:11;;;;;;;0.60;0.25;;;19.00;99.90;;;;;;5011094;28;20030;-83
2023/09/29 02:43:37;;;;;;;3.63;0.43;;;18.90;99.90;;;;;;5012723;28;20394;-83
2023/09/29 02:46:03;;;;;;;0.00;0.00;;;18.90;99.90;;;;;;5012739;28;20061;-82
2023/09/29 02:48:30;;;;;;;4.25;1.00;;;19.00;99.90;;;;;;5012649;28;20504;-80
2023/09/29 02:50:56;;;;;;;0.00;0.00;;;19.00;99.90;;;;;;5012659;28;20027;-82
2023/09/29 02:53:22;;;;;;;0.82;0.82;;;19.00;99.90;;;;;;5011562;28;20025;-82
2023/09/29 02:55:48;;;;;;;0.00;0.00;;;19.00;99.90;;;;;;5012244;28;20448;-83
2023/09/29 02:58:17;;;;;;;0.10;0.10;;;18.90;99.90;;;;;;5012382;28;20363;-83
2023/09/29 03:00:44;;;;;;;2.10;1.08;;;18.90;99.90;;;;;;5012572;28;20030;-82
2023/09/29 03:03:10;;;;;;;0.00;0.00;;;18.90;99.90;;;;;;5012354;28;20030;-83
2023/09/29 03:05:36;;;;;;;2.83;1.08;;;18.90;99.90;;;;;;5011305;28;20033;-82
2023/09/29 03:08:03;;;;;;;3.92;1.08;;;18.90;99.90;;;;;;5011325;28;20026;-83
2023/09/29 03:10:28;;;;;;;0.05;0.05;;;19.00;99.90;;;;;;5012211;28;20533;-83
2023/09/29 03:12:58;;;;;;;0.10;0.10;;;19.00;99.90;;;;;;5013630;28;20026;-83
2023/09/29 03:15:24;;;;;;;0.00;0.00;;;18.90;99.90;;;;;;5016069;28;20033;-80
2023/09/29 03:17:52;;;;;;;0.20;0.20;;;19.00;99.90;;;;;;5016218;28;20029;-80
2023/09/29 03:20:18;;;;;;;0.17;0.17;;;19.00;99.90;;;;;;5015978;28;20060;-83
2023/09/29 03:22:46;;;;;;;1.13;1.13;;;19.10;99.90;;;;;;5014857;28;20025;-83
2023/09/29 03:25:20;;;;;;;0.30;0.30;;;19.10;99.90;;;;;;5015756;28;20044;-83
2023/09/29 03:27:48;;;;;;;0.45;0.40;;;19.10;99.90;;;;;;5031219;28;20022;-80
2023/09/29 03:30:15;;;;;;;0.25;0.20;;;19.10;99.90;;;;;;5015791;28;20034;-81
2023/09/29 03:32:41;;;;;;;0.15;0.15;;;18.90;99.90;;;;;;5015901;28;20022;-83
2023/09/29 03:35:08;;;;;;;0.10;0.10;;;18.90;99.90;;;;;;5016238;28;20022;-84
2023/09/29 03:37:36;;;;;;;0.00;0.00;;;19.00;99.90;;;;;;5015705;28;20030;-83
2023/09/29 03:40:08;;;;;;;0.10;0.10;;;18.90;99.90;;;;;;5015861;28;20022;-82
2023/09/29 03:42:35;;;;;;;0.00;0.00;;;18.90;99.90;;;;;;5015726;28;20046;-84
2023/09/29 03:45:05;;;;;;;1.08;0.60;;;19.00;99.90;;;;;;5015723;28;20077;-83
2023/09/29 03:47:33;;;;;;;0.93;0.88;;;18.80;99.90;;;;;;5015725;28;20117;-84
2023/09/29 03:49:59;;;;;;;0.65;0.35;;;18.90;99.90;;;;;;5015760;28;20080;-84
2023/09/29 03:52:25;;;;;;;0.43;0.43;;;19.00;99.90;;;;;;5015234;28;20033;-84
2023/09/29 03:54:51;;;;;;;0.20;0.20;;;18.90;99.90;;;;;;5015988;28;20026;-82
2023/09/29 03:57:17;;;;;;;0.22;0.22;;;19.00;99.90;;;;;;5016060;28;20060;-82
2023/09/29 03:59:43;;;;;;;0.50;0.15;;;19.10;99.90;;;;;;5014414;28;20041;-83
2023/09/29 04:02:10;;;;;;;0.77;0.77;;;19.10;99.90;;;;;;5015538;28;20437;-83
2023/09/29 04:04:35;;;;;;;0.00;0.00;;;19.30;99.90;;;;;;5015326;28;20030;-83
2023/09/29 04:07:03;;;;;;;0.28;0.20;;;19.30;99.90;;;;;;5015238;28;20485;-80
2023/09/29 04:09:28;;;;;;;0.00;0.00;;;19.30;99.90;;;;;;5015561;28;20065;-82
2023/09/29 04:11:54;;;;;;;7.43;1.10;;;19.30;99.90;;;;;;5030248;28;20034;-84
2023/09/29 04:14:20;;;;;;;0.40;0.40;;;19.30;99.90;;;;;;5015432;28;20153;-84
2023/09/29 04:16:46;;;;;;;0.10;0.10;;;19.30;99.90;;;;;;5013588;28;20394;-82
2023/09/29 04:19:12;;;;;;;0.00;0.00;;;19.30;99.90;;;;;;5030493;28;20458;-83
2023/09/29 04:21:38;;;;;;;0.43;0.10;;;19.40;99.90;;;;;;5014893;28;20026;-84
2023/09/29 04:24:04;;;;;;;0.00;0.00;;;19.40;99.90;;;;;;5014530;28;20421;-82
2023/09/29 04:26:31;;;;;;;0.05;0.05;;;19.40;99.90;;;;;;5014766;28;20076;-83
2023/09/29 04:28:57;;;;;;;1.13;0.43;;;19.50;99.90;;;;;;5015264;28;20069;-85
2023/09/29 04:31:23;;;;;;;0.10;0.10;;;19.60;99.90;;;;;;5014969;28;20042;-84
2023/09/29 04:33:49;;;;;;;0.08;0.08;;;19.60;99.90;;;;;;5030139;28;20387;-84
2023/09/29 04:36:14;;;;;;;0.00;0.00;;;19.60;99.90;;;;;;5014679;28;20014;-83
2023/09/29 04:38:43;;;;;;;0.60;0.38;;;19.60;99.90;;;;;;5014672;28;20056;-84
2023/09/29 04:41:09;;;;;;;0.00;0.00;;;19.60;99.90;;;;;;5014860;28;20530;-84
2023/09/29 04:43:35;;;;;;;0.00;0.00;;;19.70;99.90;;;;;;5014679;28;20123;-84
2023/09/29 04:46:01;;;;;;;0.00;0.00;;;19.70;99.90;;;;;;5014593;28;20030;-84
2023/09/29 04:48:27;;;;;;;0.05;0.05;;;19.70;99.90;;;;;;5014679;28;20546;-84
2023/09/29 04:50:54;;;;;;;0.35;0.25;;;19.70;99.90;;;;;;5014146;28;20114;-83
2023/09/29 04:53:20;;;;;;;0.00;0.00;;;19.80;99.90;;;;;;5014444;28;20038;-84
2023/09/29 04:55:46;;;;;;;0.00;0.00;;;19.90;99.90;;;;;;5029734;28;20018;-83
2023/09/29 04:58:11;;;;;;;0.00;0.00;;;19.90;99.90;;;;;;5012770;28;20124;-83
2023/09/29 05:00:37;;;;;;;0.57;0.38;;;19.80;99.90;;;;;;5014089;28;20068;-83
2023/09/29 05:03:03;;;;;;;0.00;0.00;;;20.00;99.90;;;;;;5003924;28;20428;-83
2023/09/29 05:05:29;;;;;;;3.08;1.10;;;19.90;99.90;;;;;;5001088;28;20478;-83
2023/09/29 05:07:56;;;;;;;0.00;0.00;;;20.10;99.90;;;;;;5013807;28;20126;-84
2023/09/29 05:10:22;;;;;;;0.85;0.20;;;19.90;99.90;;;;;;5013608;28;20038;-84
2023/09/29 05:12:48;;;;;;;0.10;0.10;;;19.90;99.90;;;;;;5014153;28;20026;-84
2023/09/29 05:15:14;;;;;;;0.10;0.10;;;19.90;99.90;;;;;;5013685;28;20047;-83
2023/09/29 05:17:39;;;;;;;1.25;0.95;;;19.90;99.90;;;;;;5013802;28;20033;-82
2023/09/29 05:20:06;;;;;;;0.10;0.10;;;19.80;99.90;;;;;;5012369;28;20041;-81
2023/09/29 05:22:32;;;;;;;0.10;0.10;;;19.90;99.90;;;;;;5013543;28;20049;-82
2023/09/29 05:24:59;;;;;;;0.00;0.00;;;19.90;99.90;;;;;;5013743;28;20030;-83
2023/09/29 05:27:24;;;;;;;0.00;0.00;;;19.90;99.90;;;;;;5013686;28;20025;-83
2023/09/29 05:29:50;;;;;;;0.00;0.00;;;19.90;99.90;;;;;;5014248;28;20092;-84
2023/09/29 05:32:16;;;;;;;0.35;0.35;;;19.90;99.90;;;;;;5014077;28;20026;-79
2023/09/29 05:34:42;;;;;;;0.30;0.20;;;19.80;99.90;;;;;;4999794;28;20033;-84
2023/09/29 05:37:08;;;;;;;0.00;0.00;;;19.80;99.90;;;;;;5013782;28;20021;-83
2023/09/29 05:39:33;;;;;;;1.65;0.63;;;19.80;99.90;;;;;;5013446;28;20026;-84
2023/09/29 05:41:59;;;;;;;0.13;0.13;;;20.00;99.90;;;;;;5013823;28;20398;-84
2023/09/29 05:44:26;;;;;;;0.10;0.10;;;20.10;99.90;;;;;;5028347;28;20069;-84
2023/09/29 05:46:52;;;;;;;0.00;0.00;;;20.00;99.90;;;;;;5013720;28;20092;-82
2023/09/29 05:49:18;;;;;;;0.90;0.65;;;19.90;99.90;;;;;;5012967;28;20030;-82
2023/09/29 05:51:44;;;;;;;2.17;0.70;;;20.00;99.90;;;;;;5013363;28;20026;-79
2023/09/29 05:54:10;;;;;;;0.20;0.20;;;20.10;99.90;;;;;;5012648;28;20498;-80
2023/09/29 05:56:35;;;;;;;0.32;0.30;;;20.00;99.90;;;;;;5013337;28;20109;-82
2023/09/29 05:59:01;;;;;;;0.30;0.22;;;20.00;99.90;;;;;;5013417;28;20072;-80
2023/09/29 06:01:27;;;;;;;0.65;0.65;;;20.20;99.90;;;;;;5010409;28;20034;-80
2023/09/29 06:03:53;;;;;;;3.38;0.95;;;20.00;99.90;;;;;;5009172;28;20048;-82
2023/09/29 06:06:20;;;;;;;0.05;0.05;;;20.00;99.90;;;;;;5012370;28;20100;-80
2023/09/29 06:08:46;;;;;;;0.10;0.10;;;20.00;99.90;;;;;;5012351;28;20034;-81
2023/09/29 06:11:12;;;;;;;0.00;0.00;;;19.90;99.90;;;;;;5012687;28;20026;-82
2023/09/29 06:13:38;;;;;;;0.25;0.25;;;20.00;99.90;;;;;;5011024;28;20413;-80
2023/09/29 06:16:06;;;;;;;0.38;0.38;;;20.00;99.90;;;;;;5011632;28;20057;-82
2023/09/29 06:18:31;;;;;;;1.65;1.55;;;20.10;99.90;;;;;;5010906;28;20406;-80
2023/09/29 06:20:57;;;;;;;0.40;0.30;;;20.10;99.90;;;;;;5012194;28;20026;-78
2023/09/29 06:23:23;;;;;;;0.65;0.52;;;20.10;99.90;;;;;;5012544;28;20036;-80
2023/09/29 06:25:59;;;;;;;1.17;0.70;;;20.20;99.90;;;;;;5012003;28;20046;-80
2023/09/29 06:28:26;;;;;;;1.65;0.65;;;20.20;99.90;;;;;;5012260;28;20037;-80
2023/09/29 06:30:54;;;;;;;0.10;0.10;;;20.40;99.90;;;;;;5012582;28;20034;-80
2023/09/29 06:33:20;;;;;;;3.47;0.50;;;20.30;99.90;;;;;;5002062;28;20021;-79
2023/09/29 06:35:46;;;;;;;0.00;0.00;;;20.30;99.90;;;;;;5012533;28;20041;-83
2023/09/29 06:38:11;;;;;;;4.10;0.68;;;20.30;99.90;;;;;;5012391;28;20080;-83
2023/09/29 06:40:37;;;;;;;0.10;0.10;;;20.40;99.90;;;;;;5012383;28;20471;-84
2023/09/29 06:43:03;;;;;;;1.35;0.60;;;20.50;99.90;;;;;;5012104;28;20091;-82
2023/09/29 06:45:31;;;;;;;0.00;0.00;;;20.40;99.90;;;;;;5012204;28;20034;-83
2023/09/29 06:47:57;;;;;;;0.25;0.25;;;20.40;99.90;;;;;;5012466;28;20018;-82
2023/09/29 06:50:23;;;;;;;0.85;0.75;;;20.40;99.90;;;;;;5006625;28;20030;-83
2023/09/29 06:52:49;;;;;;;2.00;1.40;;;20.50;99.90;;;;;;5015012;28;20406;-84
2023/09/29 06:55:14;;;;;;;2.78;0.45;;;20.40;99.90;;;;;;5014056;28;20046;-83
2023/09/29 06:57:41;;;;;;;0.80;0.52;;;20.30;99.90;;;;;;5011204;28;20030;-84
2023/09/29 07:00:09;;;;;;;0.30;0.30;;;20.30;99.90;;;;;;5011436;28;20029;-83
2023/09/29 07:02:36;;;;;;;5.05;0.55;;;20.30;99.90;;;;;;5010637;28;20029;-82
2023/09/29 07:05:02;;;;;;;12.75;1.65;;;20.30;99.90;;;;;;5009274;28;20478;-82
2023/09/29 07:07:28;;;;;;;0.22;0.22;;;20.10;99.90;;;;;;4998805;28;20029;-84
2023/09/29 07:09:53;;;;;;;0.00;0.00;;;20.20;99.90;;;;;;4999403;28;20778;-82
2023/09/29 07:12:19;;;;;;;15.60;2.08;;;20.30;99.90;;;;;;5004033;28;20022;-83
2023/09/29 07:14:45;;;;;;;1.77;1.33;;;20.30;99.90;;;;;;5016007;28;20112;-82
2023/09/29 07:17:11;;;;;;;0.00;0.00;;;20.30;99.90;;;;;;5015865;28;20053;-83
2023/09/29 07:19:37;;;;;;;7.03;0.20;;;20.30;99.90;;;;;;5016336;28;20033;-83
2023/09/29 07:22:02;;;;;;;0.17;0.17;;;20.50;99.90;;;;;;5016308;28;20022;-83
2023/09/29 07:24:28;;;;;;;5.15;1.45;;;20.40;99.90;;;;;;5031783;28;20026;-84
2023/09/29 07:26:54;;;;;;;1.65;0.98;;;20.40;99.90;;;;;;5016214;28;20026;-85
2023/09/29 07:29:21;;;;;;;0.25;0.25;;;20.40;99.90;;;;;;5015111;28;20111;-84
2023/09/29 07:31:48;;;;;;;0.57;0.38;;;20.40;99.90;;;;;;5015981;28;20080;-85
2023/09/29 07:34:17;;;;;;;1.95;0.68;;;20.60;99.90;;;;;;5015905;28;20335;-85
2023/09/29 07:36:44;;;;;;;0.57;0.57;;;20.40;99.90;;;;;;5016014;28;20382;-83
2023/09/29 07:39:14;;;;;;;1.08;0.50;;;20.40;99.90;;;;;;5016011;28;20402;-83
2023/09/29 07:41:40;;;;;;;1.10;0.30;;;20.40;99.90;;;;;;5015847;28;20034;-84
2023/09/29 07:44:09;;;;;;;0.15;0.08;;;20.30;99.90;;;;;;5015596;28;20037;-84
2023/09/29 07:46:36;;;;;;;0.00;0.00;;;20.50;99.90;;;;;;5015606;28;20030;-84
2023/09/29 07:49:05;;;;;;;0.10;0.10;;;20.50;99.90;;;;;;5016235;28;20112;-85
2023/09/29 07:51:32;;;;;;;0.00;0.00;;;20.50;99.90;;;;;;5019199;28;20018;-85
2023/09/29 07:53:58;;;;;;;0.40;0.30;;;20.40;99.90;;;;;;5022508;28;20046;-84
2023/09/29 07:56:24;;;;;;;1.20;0.60;;;20.40;99.90;;;;;;5016887;28;20038;-86
2023/09/29 07:58:51;;;;;;;0.00;0.00;;;20.40;99.90;;;;;;5014941;28;20028;-86
2023/09/29 08:01:18;;;;;;;0.30;0.17;;;20.40;99.90;;;;;;5014995;28;20030;-85
2023/09/29 08:03:44;;;;;;;0.40;0.25;;;20.30;99.90;;;;;;5015378;28;20030;-86
2023/09/29 08:06:10;;;;;;;0.65;0.45;;;20.30;99.90;;;;;;5015556;28;20479;-85
2023/09/29 08:08:36;;;;;;;0.13;0.13;;;20.50;99.90;;;;;;5015390;28;20026;-85
2023/09/29 08:11:02;;;;;;;0.95;0.22;;;20.60;99.90;;;;;;5015385;28;20030;-85
2023/09/29 08:13:28;;;;;;;0.98;0.82;;;20.60;99.90;;;;;;5015044;28;20060;-84
2023/09/29 08:15:54;;;;;;;0.30;0.30;;;20.60;99.90;;;;;;5015142;28;20486;-85
2023/09/29 08:18:20;;;;;;;0.20;0.20;;;20.70;99.90;;;;;;5014975;28;20022;-85
2023/09/29 08:20:50;;;;;;;1.00;0.57;;;20.90;99.90;;;;;;5015409;28;20025;-83
2023/09/29 08:23:16;;;;;;;1.90;1.53;;;21.00;99.90;;;;;;5014980;28;20558;-85
2023/09/29 08:25:43;;;;;;;1.85;0.70;;;21.00;99.90;;;;;;5015069;28;20112;-83
2023/09/29 08:28:09;;;;;;;0.52;0.30;;;20.90;99.90;;;;;;5014651;28;20029;-84
2023/09/29 08:30:34;;;;;;;0.00;0.00;;;20.90;99.90;;;;;;5014944;28;20504;-83
2023/09/29 08:33:00;;;;;;;5.57;0.50;;;20.70;99.90;;;;;;5014995;28;20431;-85
2023/09/29 08:35:27;;;;;;;0.90;0.73;;;20.80;99.90;;;;;;5014944;28;20026;-84
2023/09/29 08:37:53;;;;;;;2.92;0.60;;;20.90;99.90;;;;;;5014773;28;20030;-84
2023/09/29 08:40:19;;;;;;;3.70;1.23;;;20.80;99.90;;;;;;5014965;28;20084;-87
2023/09/29 08:42:49;;;;;;;4.40;0.40;;;20.60;99.90;;;;;;5014164;28;20080;-85
2023/09/29 08:45:17;;;;;;;4.65;1.15;;;20.50;99.90;;;;;;5014722;28;20124;-85
2023/09/29 08:47:49;;;;;;;3.38;1.23;;;20.50;99.90;;;;;;5014676;28;20022;-86
2023/09/29 08:50:16;;;;;;;4.50;0.80;;;20.60;99.90;;;;;;5014790;28;20390;-84
2023/09/29 08:52:44;;;;;;;0.00;0.00;;;20.70;99.90;;;;;;5015133;28;20014;-83
2023/09/29 08:55:14;;;;;;;1.75;1.08;;;20.60;99.90;;;;;;5016079;28;20026;-83
2023/09/29 08:57:44;;;;;;;0.40;0.40;;;20.60;99.90;;;;;;5014767;28;20475;-83
2023/09/29 09:00:14;;;;;;;0.98;0.70;;;20.60;99.90;;;;;;5013398;28;20096;-81
2023/09/29 09:02:41;;;;;;;3.95;1.02;;;20.70;99.90;;;;;;5014637;28;20064;-83
2023/09/29 09:05:15;;;;;;;0.98;0.52;;;20.90;99.90;;;;;;5014046;28;20083;-83
2023/09/29 09:07:43;;;;;;;1.20;0.85;;;21.10;99.90;;;;;;5014146;28;20022;-84
2023/09/29 09:10:11;;;;;;;2.85;1.20;;;21.10;99.90;;;;;;5014287;28;20030;-81
2023/09/29 09:12:40;;;;;;;0.50;0.40;;;21.00;99.90;;;;;;5013271;28;20427;-83
2023/09/29 09:15:08;;;;;;;0.55;0.20;;;21.10;99.90;;;;;;5029654;28;20042;-84
2023/09/29 09:17:34;;;;;;;3.47;1.10;;;21.00;99.90;;;;;;5013847;28;20042;-79
2023/09/29 09:20:01;;;;;;;2.50;1.10;;;21.40;99.90;;;;;;5014145;28;20454;-82
2023/09/29 09:22:32;;;;;;;0.52;0.35;;;21.40;99.90;;;;;;5013607;28;20026;-80
2023/09/29 09:25:08;;;;;;;0.70;0.70;;;21.20;99.90;;;;;;5013995;28;20049;-83
2023/09/29 09:27:38;;;;;;;1.08;0.45;;;21.10;99.90;;;;;;5013409;28;20493;-79
2023/09/29 09:30:05;;;;;;;0.93;0.63;;;21.30;99.90;;;;;;5014029;28;20045;-83
2023/09/29 09:32:31;;;;;;;1.35;0.70;;;21.30;99.90;;;;;;5013760;28;20026;-79
2023/09/29 09:34:58;;;;;;;3.38;1.55;;;21.10;99.90;;;;;;5013683;28;20116;-83
2023/09/29 09:37:25;;;;;;;0.20;0.20;;;21.00;99.90;;;;;;5013555;28;20026;-82
2023/09/29 09:39:54;;;;;;;1.13;0.40;;;20.70;99.90;;;;;;5013405;28;20410;-83
2023/09/29 09:42:25;;;;;;;0.20;0.20;;;20.60;99.90;;;;;;5013813;28;20438;-82
2023/09/29 09:44:53;;;;;;;0.77;0.30;;;20.30;99.90;;;;;;5013374;28;20104;-83
2023/09/29 09:47:20;;;;;;;0.30;0.22;;;20.40;99.90;;;;;;5013598;28;20526;-82
2023/09/29 09:49:48;;;;;;;0.63;0.38;;;20.70;99.90;;;;;;5013565;28;20029;-82
2023/09/29 09:52:24;;;;;;;0.35;0.20;;;20.60;99.90;;;;;;5013651;28;20538;-83
2023/09/29 09:55:11;;;;;;;1.25;0.40;;;20.70;99.90;;;;;;5013131;28;20025;-82
2023/09/29 09:57:43;;;;;;;0.77;0.60;;;20.70;99.90;;;;;;5013947;28;20030;-82
2023/09/29 10:00:12;;;;;;;3.22;1.05;;;20.60;99.90;;;;;;5013114;28;20355;-85
2023/09/29 10:02:46;;;;;;;0.20;0.20;;;20.60;99.90;;;;;;5013453;28;20022;-83
2023/09/29 10:05:16;;;;;;;0.45;0.45;;;20.70;99.90;;;;;;5012747;28;20034;-83
2023/09/29 10:07:46;;;;;;;1.40;0.73;;;20.70;99.90;;;;;;5013420;28;20053;-81
2023/09/29 10:10:42;;;;;;;0.80;0.65;;;20.60;99.90;;;;;;5013014;28;20108;-83
2023/09/29 10:13:11;;;;;;;2.63;1.35;;;20.60;99.90;;;;;;5013129;28;20049;-82
2023/09/29 10:15:39;;;;;;;0.77;0.77;;;20.80;99.90;;;;;;5013181;28;20014;-82
2023/09/29 10:18:17;;;;;;;0.10;0.10;;;20.70;99.90;;;;;;5013220;28;20121;-83
2023/09/29 10:20:44;;;;;;;0.00;0.00;;;20.80;99.90;;;;;;5009917;28;20113;-84
2023/09/29 10:23:14;;;;;;;0.00;0.00;;;20.80;99.90;;;;;;5013356;28;20033;-85
2023/09/29 10:25:45;;;;;;;0.03;0.03;;;20.80;99.90;;;;;;5013108;28;20384;-86
2023/09/29 10:28:12;;;;;;;0.00;0.00;;;20.80;99.90;;;;;;5013727;28;20034;-85
2023/09/29 10:30:39;;;;;;;0.03;0.03;;;20.90;99.90;;;;;;5020301;28;20037;-79
2023/09/29 10:33:07;;;;;;;0.00;0.00;;;21.00;99.90;;;;;;5009707;28;20111;-84
2023/09/29 10:35:33;;;;;;;0.08;0.08;;;21.00;99.90;;;;;;5016280;28;20025;-84
2023/09/29 10:38:07;;;;;;;0.52;0.52;;;20.80;99.90;;;;;;5015928;28;20474;-82
2023/09/29 10:40:36;;;;;;;0.90;0.52;;;21.00;99.90;;;;;;5011996;28;20030;-83
2023/09/29 10:43:03;;;;;;;0.52;0.52;;;21.00;99.90;;;;;;5011471;28;20033;-82
2023/09/29 10:45:36;;;;;;;0.47;0.30;;;20.90;99.90;;;;;;5011156;28;20120;-83
2023/09/29 10:48:07;;;;;;;0.43;0.28;;;21.00;99.90;;;;;;5011786;28;20030;-84
2023/09/29 10:50:44;;;;;;;0.30;0.20;;;21.00;99.90;;;;;;5011371;28;20038;-80
2023/09/29 10:53:11;;;;;;;1.45;1.35;;;21.00;99.90;;;;;;5010648;28;20080;-82
2023/09/29 10:55:49;;;;;;;1.45;0.73;;;20.70;99.90;;;;;;5012522;28;20521;-81
2023/09/29 10:58:17;;;;;;;2.42;0.55;;;20.70;99.90;;;;;;5007699;28;20017;-81
2023/09/29 11:00:50;;;;;;;1.13;0.40;;;20.80;99.90;;;;;;5002169;28;20530;-83
2023/09/29 11:03:27;;;;;;;1.10;0.35;;;20.90;99.90;;;;;;5011915;28;20428;-83
2023/09/29 11:06:08;;;;;;;0.15;0.15;;;20.80;99.90;;;;;;5011074;28;20100;-85
2023/09/29 11:08:38;;;;;;;4.22;0.75;;;20.90;99.90;;;;;;5011301;28;20022;-84
2023/09/29 11:11:08;;;;;;;1.02;0.55;;;20.70;99.90;;;;;;5011943;28;20033;-82
2023/09/29 11:13:37;;;;;;;0.30;0.30;;;20.60;99.90;;;;;;5011960;28;20025;-82
2023/09/29 11:16:13;;;;;;;0.38;0.35;;;20.50;99.90;;;;;;5011955;28;20084;-85
2023/09/29 11:18:39;;;;;;;0.10;0.10;;;20.70;99.90;;;;;;5011760;28;20073;-85
2023/09/29 11:21:08;;;;;;;1.85;0.40;;;20.70;99.90;;;;;;5004532;28;20054;-83
2023/09/29 11:23:45;;;;;;;0.00;0.00;;;20.70;99.90;;;;;;5011602;28;20034;-81
2023/09/29 11:26:12;;;;;;;0.47;0.47;;;20.60;99.90;;;;;;5011556;28;20544;-80
2023/09/29 11:28:48;;;;;;;1.60;0.63;;;20.40;99.90;;;;;;5011731;28;20056;-80
2023/09/29 11:31:17;;;;;;;1.00;1.00;;;20.30;99.90;;;;;;5011476;28;20049;-79
2023/09/29 11:33:44;;;;;;;0.30;0.30;;;20.10;99.90;;;;;;5011901;28;20049;-80
2023/09/29 11:36:23;;;;;;;0.70;0.10;;;20.00;99.90;;;;;;5014808;28;20030;-80
2023/09/29 11:38:50;;;;;;;0.10;0.10;;;19.80;99.90;;;;;;5014650;28;20458;-79
2023/09/29 11:41:23;;;;;;;1.45;0.52;;;19.60;99.90;;;;;;5014778;28;20406;-80
2023/09/29 11:43:50;;;;;;;0.65;0.50;;;19.40;99.90;;;;;;5015076;28;20042;-80
2023/09/29 11:46:16;;;;;;;0.10;0.10;;;19.10;99.90;;;;;;5014865;28;20363;-80
2023/09/29 11:48:42;;;;;;;1.35;0.60;;;19.20;99.90;;;;;;5015042;28;20018;-81
2023/09/29 11:51:10;;;;;;;0.00;0.00;;;19.20;99.90;;;;;;5013341;28;20484;-80
2023/09/29 11:53:36;;;;;;;0.30;0.30;;;19.30;99.90;;;;;;5014897;28;20057;-79
2023/09/29 11:56:03;;;;;;;0.10;0.10;;;19.20;99.90;;;;;;5015025;28;20030;-81
2023/09/29 11:58:31;;;;;;;1.55;0.85;;;19.30;99.90;;;;;;5014606;28;20034;-79
2023/09/29 12:01:00;;;;;;;0.65;0.65;;;19.20;99.90;;;;;;5013412;28;20044;-81
2023/09/29 12:03:27;;;;;;;0.30;0.30;;;19.30;99.90;;;;;;5014626;28;20026;-81
2023/09/29 12:05:54;;;;;;;0.55;0.43;;;19.30;99.90;;;;;;5014568;28;20076;-80
2023/09/29 12:08:20;;;;;;;0.10;0.10;;;19.30;99.90;;;;;;5014541;28;20441;-80
2023/09/29 12:10:46;;;;;;;0.00;0.00;;;19.40;99.90;;;;;;5014500;28;20113;-81
2023/09/29 12:13:15;;;;;;;1.67;0.50;;;19.70;99.90;;;;;;5012176;28;20034;-80
2023/09/29 12:15:43;;;;;;;0.30;0.30;;;19.60;99.90;;;;;;5013710;28;20157;-80
2023/09/29 12:18:09;;;;;;;0.00;0.00;;;19.50;99.90;;;;;;5014210;28;20030;-79
2023/09/29 12:20:35;;;;;;;0.00;0.00;;;19.50;99.90;;;;;;5012600;28;20041;-82
2023/09/29 12:23:01;;;;;;;0.65;0.47;;;19.50;99.90;;;;;;5014073;28;20390;-81
2023/09/29 12:25:27;;;;;;;0.98;0.77;;;19.60;99.90;;;;;;5014119;28;20038;-82
2023/09/29 12:27:54;;;;;;;1.52;1.00;;;19.40;99.90;;;;;;5014500;28;20025;-81
2023/09/29 12:30:21;;;;;;;0.20;0.20;;;19.30;99.90;;;;;;5013762;28;20498;-80
2023/09/29 12:32:47;;;;;;;0.52;0.20;;;19.10;99.90;;;;;;5013694;28;20026;-79
2023/09/29 12:35:13;;;;;;;0.80;0.80;;;19.00;99.90;;;;;;5013726;28;20087;-79
2023/09/29 12:37:40;;;;;;;0.30;0.30;;;18.90;99.90;;;;;;5013657;28;20018;-80
2023/09/29 12:40:09;;;;;;;1.02;0.65;;;18.80;99.90;;;;;;5014098;28;20029;-80
2023/09/29 12:42:35;;;;;;;0.00;0.00;;;18.60;99.90;;;;;;5013773;28;20439;-78
2023/09/29 12:45:01;;;;;;;6.97;1.83;;;18.80;99.90;;;;;;5013387;28;20125;-79
2023/09/29 12:47:27;;;;;;;0.00;0.00;;;18.70;99.90;;;;;;5013710;28;20446;-78
2023/09/29 12:49:53;;;;;;;1.17;1.08;;;19.00;99.90;;;;;;5013058;28;20053;-80